createdAt,value
2023-01-08T00:02:40.133Z,6.90
2023-01-08T00:12:44.103Z,5.60
2023-01-08T00:17:45.840Z,5.40
2023-01-08T00:22:51.473Z,5.40
2023-01-08T00:27:53.230Z,6.80
2023-01-08T00:32:55.005Z,5.30
2023-01-08T00:37:56.896Z,7.10
2023-01-08T00:48:00.800Z,5.50
2023-01-08T00:58:05.186Z,5.10
2023-01-08T01:03:07.462Z,6.80
2023-01-08T01:08:09.221Z,6.30
2023-01-08T01:13:11.374Z,5.60
2023-01-08T01:18:13.125Z,5.80
2023-01-08T01:23:14.949Z,5.90
2023-01-08T01:28:17.337Z,5.50
2023-01-08T01:33:19.084Z,4.90
2023-01-08T01:38:20.801Z,4.90
2023-01-08T01:43:43.301Z,5.30
2023-01-08T01:48:46.873Z,5.30
2023-01-08T01:53:49.953Z,5.50
2023-01-08T01:58:51.867Z,6.30
2023-01-08T02:03:53.671Z,5.50
2023-01-08T02:09:34.061Z,5.60
2023-01-08T02:15:04.321Z,5.30
2023-01-08T02:20:13.750Z,5.20
2023-01-08T02:25:27.411Z,5.20
2023-01-08T02:30:30.038Z,5.40
2023-01-08T02:35:44.748Z,5.50
2023-01-08T02:41:02.611Z,5.50
2023-01-08T02:46:06.045Z,5.40
2023-01-08T02:51:31.824Z,5.60
2023-01-08T02:56:37.007Z,5.70
2023-01-08T03:01:40.838Z,5.50
2023-01-08T03:06:43.462Z,5.70
2023-01-08T03:11:53.959Z,7.00
2023-01-08T03:16:58.431Z,5.80
2023-01-08T03:22:02.425Z,5.90
2023-01-08T03:27:07.236Z,5.90
2023-01-08T03:32:14.036Z,5.80
2023-01-08T03:37:23.284Z,5.70
2023-01-08T03:42:26.329Z,5.70
2023-01-08T03:47:30.834Z,5.80
2023-01-08T03:52:33.285Z,6.00
2023-01-08T03:57:34.947Z,6.10
2023-01-08T04:02:36.744Z,6.10
2023-01-08T04:07:38.622Z,6.20
2023-01-08T04:12:43.209Z,6.30
2023-01-08T04:17:44.903Z,5.90
2023-01-08T04:22:46.612Z,6.00
2023-01-08T04:27:48.320Z,5.90
2023-01-08T04:32:49.995Z,6.20
2023-01-08T04:37:51.683Z,7.00
2023-01-08T04:42:53.487Z,6.10
2023-01-08T04:47:59.291Z,6.20
2023-01-08T04:53:00.942Z,6.30
2023-01-08T04:58:02.586Z,6.50
2023-01-08T05:03:04.330Z,6.50
2023-01-08T05:08:06.090Z,6.00
2023-01-08T05:13:07.781Z,6.20
2023-01-08T05:18:10.037Z,6.40
2023-01-08T05:23:11.764Z,6.30
2023-01-08T05:28:13.427Z,6.60
2023-01-08T05:33:15.144Z,6.60
2023-01-08T05:38:16.909Z,6.70
2023-01-08T05:43:18.630Z,6.40
2023-01-08T05:48:20.303Z,6.60
2023-01-08T05:53:22.477Z,7.10
2023-01-08T05:58:24.129Z,8.50
2023-01-08T06:03:25.943Z,7.80
2023-01-08T06:08:29.058Z,8.10
2023-01-08T06:13:30.761Z,8.20
2023-01-08T06:18:32.627Z,8.30
2023-01-08T06:23:34.356Z,8.70
2023-01-08T06:28:36.116Z,8.50
2023-01-08T06:33:37.975Z,8.60
2023-01-08T06:38:39.703Z,9.00
2023-01-08T06:43:41.411Z,8.60
2023-01-08T06:48:43.087Z,8.60
2023-01-08T06:53:47.468Z,8.60
2023-01-08T06:58:49.187Z,8.80
2023-01-08T07:03:50.876Z,8.80
2023-01-08T07:08:52.719Z,8.90
2023-01-08T07:13:55.907Z,9.00
2023-01-08T07:18:58.480Z,10.20
2023-01-08T07:24:00.198Z,9.10
2023-01-08T07:29:02.168Z,9.10
2023-01-08T07:34:03.861Z,9.10
2023-01-08T07:39:05.581Z,9.10
2023-01-08T07:44:07.454Z,9.30
2023-01-08T07:49:09.280Z,8.20
2023-01-08T07:54:11.234Z,9.40
2023-01-08T07:59:12.921Z,9.30
2023-01-08T08:04:15.964Z,9.20
2023-01-08T08:09:17.971Z,8.60
2023-01-08T08:14:19.639Z,10.00
2023-01-08T08:19:21.366Z,11.70
2023-01-08T08:24:23.129Z,9.00
2023-01-08T08:29:24.816Z,9.10
2023-01-08T08:34:26.536Z,9.20
2023-01-08T08:39:28.255Z,9.20
2023-01-08T08:44:29.995Z,9.10
2023-01-08T08:49:35.542Z,9.20
2023-01-08T08:54:41.399Z,9.20
2023-01-08T08:59:43.425Z,9.10
2023-01-08T09:04:45.308Z,9.50
2023-01-08T09:09:46.991Z,9.30
2023-01-08T09:14:50.199Z,9.40
2023-01-08T09:19:51.962Z,9.40
2023-01-08T09:24:55.119Z,9.40
2023-01-08T09:29:57.019Z,9.50
2023-01-08T09:35:00.033Z,9.40
2023-01-08T09:40:02.906Z,9.50
2023-01-08T09:45:06.475Z,9.20
2023-01-08T09:50:12.738Z,9.50
2023-01-08T09:55:16.307Z,9.50
2023-01-08T10:00:24.454Z,9.60
2023-01-08T10:05:28.635Z,9.70
2023-01-08T10:10:31.895Z,9.70
2023-01-08T10:15:33.823Z,9.80
2023-01-08T10:20:36.061Z,9.80
2023-01-08T10:25:52.679Z,9.90
2023-01-08T10:31:09.085Z,9.70
2023-01-08T10:36:14.979Z,9.70
2023-01-08T10:41:17.874Z,9.70
2023-01-08T10:46:30.548Z,10.50
2023-01-08T10:51:33.574Z,9.90
2023-01-08T10:56:43.877Z,10.00
2023-01-08T11:01:50.828Z,10.00
2023-01-08T11:11:55.518Z,12.30
2023-01-08T11:16:58.753Z,10.20
2023-01-08T11:22:19.037Z,10.10
2023-01-08T11:27:44.243Z,10.20
2023-01-08T11:32:53.281Z,10.30
2023-01-08T11:38:01.805Z,10.40
2023-01-08T11:43:06.403Z,10.20
2023-01-08T11:48:24.220Z,10.30
2023-01-08T11:53:43.484Z,10.20
2023-01-08T11:59:14.483Z,10.00
2023-01-08T12:04:16.209Z,10.00
2023-01-08T12:09:36.300Z,10.30
2023-01-08T12:14:46.289Z,10.30
2023-01-08T12:20:00.395Z,10.60
2023-01-08T12:25:23.991Z,11.00
2023-01-08T12:30:33.035Z,11.00
2023-01-08T12:35:48.516Z,10.90
2023-01-08T12:40:58.534Z,10.90
2023-01-08T12:46:02.823Z,10.80
2023-01-08T12:52:02.286Z,10.70
2023-01-08T12:57:12.428Z,10.80
2023-01-08T13:02:51.929Z,10.80
2023-01-08T13:07:58.504Z,10.80
2023-01-08T13:13:02.037Z,10.90
2023-01-08T13:18:18.648Z,10.90
2023-01-08T13:23:28.912Z,10.80
2023-01-08T13:28:44.477Z,10.90
2023-01-08T13:33:48.718Z,11.00
2023-01-08T13:39:23.888Z,11.00
2023-01-08T13:44:40.038Z,11.10
2023-01-08T13:49:45.310Z,11.00
2023-01-08T13:54:48.416Z,10.90
2023-01-08T13:59:57.668Z,10.90
2023-01-08T14:05:01.067Z,11.00
2023-01-08T14:10:13.188Z,11.70
2023-01-08T14:15:26.521Z,11.00
2023-01-08T14:20:37.128Z,11.00
2023-01-08T14:25:40.632Z,11.30
2023-01-08T14:30:49.114Z,11.30
2023-01-08T14:35:51.906Z,11.30
2023-01-08T14:41:05.263Z,11.40
2023-01-08T14:46:28.850Z,11.40
2023-01-08T14:51:31.847Z,11.20
2023-01-08T14:56:36.211Z,11.60
2023-01-08T15:01:38.418Z,10.70
2023-01-08T15:06:41.373Z,10.50
2023-01-08T15:11:54.478Z,10.20
2023-01-08T15:16:59.536Z,10.00
2023-01-08T15:22:02.584Z,10.10
2023-01-08T15:27:10.173Z,10.00
2023-01-08T15:32:22.157Z,10.00
2023-01-08T15:37:24.296Z,9.90
2023-01-08T15:42:49.954Z,9.90
2023-01-08T15:47:51.757Z,9.90
2023-01-08T15:52:54.166Z,9.80
2023-01-08T15:57:56.222Z,9.80
2023-01-08T16:03:00.005Z,9.70
2023-01-08T16:13:04.109Z,9.50
2023-01-08T16:18:05.906Z,9.40
2023-01-08T16:23:07.692Z,8.90
2023-01-08T16:28:09.794Z,9.20
2023-01-08T16:33:11.702Z,9.10
2023-01-08T16:38:14.248Z,9.10
2023-01-08T16:48:18.744Z,9.00
2023-01-08T16:53:22.031Z,9.20
2023-01-08T16:58:23.987Z,9.20
2023-01-08T17:03:25.851Z,9.10
2023-01-08T17:08:28.414Z,9.10
2023-01-08T17:18:33.638Z,9.20
2023-01-08T17:23:36.119Z,9.40
2023-01-08T17:28:38.374Z,9.30
2023-01-08T17:33:40.463Z,9.00
2023-01-08T17:43:44.827Z,9.00
2023-01-08T17:48:46.889Z,9.00
2023-01-08T17:53:48.603Z,9.10
2023-01-08T17:58:50.903Z,9.10
2023-01-08T18:03:52.720Z,9.10
2023-01-08T18:08:54.512Z,9.20
2023-01-08T18:14:01.367Z,9.10
2023-01-08T18:19:03.281Z,9.40
2023-01-08T18:24:05.320Z,9.00
2023-01-08T18:34:09.852Z,9.00
2023-01-08T18:39:15.186Z,8.80
2023-01-08T18:44:17.090Z,8.80
2023-01-08T18:49:20.257Z,9.40
2023-01-08T18:54:22.306Z,10.50
2023-01-08T18:59:24.489Z,9.00
2023-01-08T19:04:26.307Z,9.20
2023-01-08T19:09:28.184Z,9.20
2023-01-08T19:14:30.388Z,9.20
2023-01-08T19:19:32.390Z,9.40
2023-01-08T19:24:37.008Z,9.50
2023-01-08T19:29:38.962Z,9.40
2023-01-08T19:34:41.331Z,9.50
2023-01-08T19:39:43.147Z,9.40
2023-01-08T19:44:45.465Z,9.40
2023-01-08T19:49:48.842Z,10.10
2023-01-08T19:54:50.765Z,9.20
2023-01-08T20:04:54.781Z,9.30
2023-01-08T20:09:58.062Z,9.30
2023-01-08T20:15:01.817Z,9.10
2023-01-08T20:20:03.994Z,9.10
2023-01-08T20:25:06.648Z,9.10
2023-01-08T20:30:10.459Z,9.10
2023-01-08T20:35:12.275Z,9.40
2023-01-08T20:40:14.249Z,9.50
2023-01-08T20:45:16.072Z,9.40
2023-01-08T20:55:22.418Z,9.30
2023-01-08T21:00:25.856Z,10.30
2023-01-08T21:05:27.669Z,9.00
2023-01-08T21:10:29.418Z,8.90
2023-01-08T21:15:31.333Z,9.20
2023-01-08T21:20:33.083Z,9.10
2023-01-08T21:30:37.012Z,9.30
2023-01-08T21:35:38.883Z,9.20
2023-01-08T21:40:40.702Z,9.40
2023-01-08T21:45:42.739Z,9.60
2023-01-08T21:50:44.584Z,9.20
2023-01-08T21:55:46.496Z,9.20
2023-01-08T22:00:48.430Z,9.20
2023-01-08T22:06:01.629Z,9.10
2023-01-08T22:11:07.614Z,9.70
2023-01-08T22:16:10.711Z,9.10
2023-01-08T22:21:13.414Z,9.20
2023-01-08T22:26:15.319Z,9.40
2023-01-08T22:31:17.567Z,9.40
2023-01-08T22:36:19.434Z,9.40
2023-01-08T22:41:24.215Z,9.40
2023-01-08T22:46:26.273Z,9.40
2023-01-08T22:51:28.071Z,9.40
2023-01-08T22:56:29.879Z,9.30
2023-01-08T23:01:31.911Z,9.60
2023-01-08T23:06:35.775Z,9.30
2023-01-08T23:11:39.434Z,9.10
2023-01-08T23:16:44.646Z,9.10
2023-01-08T23:21:48.480Z,9.10
2023-01-08T23:46:59.707Z,9.10
2023-01-08T23:57:06.195Z,9.30
